Terminal Aerodrome Forecast
Issued by NWS

Home | Current Version | Previous Version | Graphics & Text | Print | Product List | Glossary On
Versions: 1 2 3 4 5 6 7 8 9 10 11 12 13 14 15 16 17 18 19 20 21 22 23 24 25 26 27 28
823
FTUS43 KGRB 191135
TAFRHI
TAF
KRHI 191135Z 1912/2012 22005KT P6SM BKN200
     FM191500 21008KT P6SM BKN200 WS015/26035KT
     FM200100 25006KT P6SM BKN200=

USA.gov is the U.S. government's official web portal to all federal, state and local government web resources and services.